createdAt,value
2022-11-28T00:02:31.956Z,82.28
2022-11-28T00:05:06.286Z,94.82
2022-11-28T00:07:39.840Z,94.10
2022-11-28T00:10:14.093Z,90.38
2022-11-28T00:12:47.640Z,90.53
2022-11-28T00:15:21.403Z,89.50
2022-11-28T00:17:56.464Z,84.25
2022-11-28T00:20:31.533Z,95.80
2022-11-28T00:23:05.139Z,92.60
2022-11-28T00:25:38.639Z,95.30
2022-11-28T00:28:14.425Z,87.13
2022-11-28T00:30:48.079Z,95.18
2022-11-28T00:33:23.139Z,99.47
2022-11-28T00:36:00.282Z,102.88
2022-11-28T00:38:33.827Z,96.30
2022-11-28T00:41:08.646Z,89.15
2022-11-28T00:43:42.952Z,82.93
2022-11-28T00:46:17.830Z,81.97
2022-11-28T00:48:53.609Z,86.57
2022-11-28T00:51:31.498Z,85.78
2022-11-28T00:54:06.916Z,84.13
2022-11-28T00:56:41.737Z,87.13
2022-11-28T00:59:15.292Z,81.50
2022-11-28T01:01:48.922Z,92.22
2022-11-28T01:04:23.974Z,86.72
2022-11-28T01:06:58.375Z,79.05
2022-11-28T01:09:32.078Z,81.68
2022-11-28T01:12:05.987Z,81.80
2022-11-28T01:17:13.135Z,92.38
2022-11-28T01:19:48.128Z,89.78
2022-11-28T01:22:21.690Z,96.63
2022-11-28T01:24:55.380Z,93.28
2022-11-28T01:27:29.144Z,82.28
2022-11-28T01:30:02.617Z,93.85
2022-11-28T01:32:36.127Z,93.50
2022-11-28T01:35:11.303Z,97.40
2022-11-28T01:37:44.773Z,91.97
2022-11-28T01:40:18.332Z,95.05
2022-11-28T01:42:51.794Z,93.75
2022-11-28T01:45:27.333Z,93.32
2022-11-28T01:48:04.235Z,89.93
2022-11-28T01:50:39.840Z,87.00
2022-11-28T01:53:14.856Z,84.53
2022-11-28T01:55:53.985Z,82.00
2022-11-28T01:58:28.359Z,82.32
2022-11-28T02:01:02.290Z,94.95
2022-11-28T02:06:17.676Z,86.07
2022-11-28T02:08:52.782Z,86.30
2022-11-28T02:11:53.613Z,85.95
2022-11-28T02:14:44.911Z,88.68
2022-11-28T02:17:29.264Z,83.68
2022-11-28T02:23:06.386Z,75.05
2022-11-28T02:26:08.543Z,84.30
2022-11-28T02:29:19.449Z,91.53
2022-11-28T02:32:15.373Z,84.28
2022-11-28T02:34:58.958Z,89.60
2022-11-28T02:37:38.468Z,91.70
2022-11-28T02:40:23.756Z,74.68
2022-11-28T02:43:06.922Z,80.30
2022-11-28T02:45:49.334Z,76.82
2022-11-28T02:48:34.504Z,85.82
2022-11-28T02:51:12.839Z,81.75
2022-11-28T02:53:48.060Z,76.25
2022-11-28T02:56:21.613Z,80.32
2022-11-28T02:58:55.413Z,81.68
2022-11-28T03:01:39.032Z,77.30
2022-11-28T03:04:28.107Z,81.03
2022-11-28T03:07:13.855Z,76.30
2022-11-28T03:10:16.706Z,76.50
2022-11-28T03:13:07.752Z,66.07
2022-11-28T03:15:55.064Z,76.63
2022-11-28T03:18:34.389Z,73.43
2022-11-28T03:21:18.567Z,71.78
2022-11-28T03:24:01.201Z,70.55
2022-11-28T03:26:43.634Z,70.97
2022-11-28T03:29:24.764Z,71.50
2022-11-28T03:32:02.750Z,66.75
2022-11-28T03:34:51.967Z,61.72
2022-11-28T03:37:30.868Z,69.25
2022-11-28T03:40:09.152Z,54.92
2022-11-28T03:42:45.727Z,63.30
2022-11-28T03:45:23.347Z,67.13
2022-11-28T03:48:00.104Z,60.13
2022-11-28T03:50:37.244Z,57.90
2022-11-28T03:53:17.872Z,64.00
2022-11-28T03:55:57.580Z,62.00
2022-11-28T03:58:38.107Z,62.08
2022-11-28T04:01:22.224Z,66.30
2022-11-28T04:04:01.239Z,66.82
2022-11-28T04:06:45.482Z,62.53
2022-11-28T04:09:25.994Z,69.78
2022-11-28T04:12:06.627Z,59.85
2022-11-28T04:14:47.064Z,61.17
2022-11-28T04:17:26.685Z,70.03
2022-11-28T04:20:06.804Z,63.45
2022-11-28T04:22:46.379Z,66.68
2022-11-28T04:25:25.199Z,70.00
2022-11-28T04:28:04.718Z,67.43
2022-11-28T04:30:39.961Z,69.47
2022-11-28T04:33:15.733Z,67.53
2022-11-28T04:35:52.268Z,65.05
2022-11-28T04:38:27.934Z,59.60
2022-11-28T04:41:08.127Z,64.50
2022-11-28T04:43:45.163Z,62.83
2022-11-28T04:46:25.248Z,63.42
2022-11-28T04:48:59.444Z,58.10
2022-11-28T04:51:41.975Z,64.85
2022-11-28T04:54:22.196Z,60.13
2022-11-28T04:57:01.130Z,65.60
2022-11-28T04:59:34.981Z,59.55
2022-11-28T05:02:08.831Z,61.55
2022-11-28T05:04:44.977Z,66.13
2022-11-28T05:07:18.687Z,70.38
2022-11-28T05:09:52.453Z,66.55
2022-11-28T05:12:27.396Z,67.07
2022-11-28T05:15:00.938Z,70.63
2022-11-28T05:17:39.005Z,65.40
2022-11-28T05:20:16.150Z,69.28
2022-11-28T05:22:49.630Z,64.03
2022-11-28T05:25:23.201Z,67.28
2022-11-28T05:27:58.122Z,67.93
2022-11-28T05:30:31.627Z,59.53
2022-11-28T05:33:05.116Z,58.58
2022-11-28T05:35:40.863Z,59.85
2022-11-28T05:38:14.326Z,62.90
2022-11-28T05:40:47.918Z,69.93
2022-11-28T05:43:22.850Z,65.65
2022-11-28T05:45:56.855Z,70.95
2022-11-28T05:48:30.394Z,63.08
2022-11-28T05:51:05.748Z,67.47
2022-11-28T05:53:39.182Z,69.93
2022-11-28T05:56:14.887Z,71.35
2022-11-28T05:58:50.069Z,64.13
2022-11-28T06:01:25.875Z,65.07
2022-11-28T06:04:01.075Z,71.10
2022-11-28T06:06:36.559Z,61.88
2022-11-28T06:09:10.221Z,73.30
2022-11-28T06:11:43.692Z,85.32
2022-11-28T06:14:18.629Z,74.97
2022-11-28T06:16:52.184Z,76.93
2022-11-28T06:19:25.700Z,73.03
2022-11-28T06:21:59.578Z,77.20
2022-11-28T06:24:33.040Z,71.53
2022-11-28T06:27:06.595Z,72.13
2022-11-28T06:29:41.727Z,62.30
2022-11-28T06:32:18.918Z,63.15
2022-11-28T06:34:55.523Z,62.78
2022-11-28T06:37:29.642Z,59.55
2022-11-28T06:40:03.138Z,60.95
2022-11-28T06:42:37.010Z,63.67
2022-11-28T06:45:12.826Z,54.38
2022-11-28T06:47:46.308Z,56.78
2022-11-28T06:50:19.846Z,58.55
2022-11-28T06:52:53.352Z,58.13
2022-11-28T06:55:26.887Z,55.83
2022-11-28T06:58:00.480Z,60.42
2022-11-28T07:00:35.831Z,70.10
2022-11-28T07:03:09.401Z,67.55
2022-11-28T07:05:43.019Z,86.40
2022-11-28T07:08:18.969Z,83.00
2022-11-28T07:10:52.581Z,85.10
2022-11-28T07:13:26.395Z,81.95
2022-11-28T07:16:01.285Z,74.57
2022-11-28T07:18:34.964Z,77.47
2022-11-28T07:21:08.441Z,69.45
2022-11-28T07:23:42.446Z,68.85
2022-11-28T07:28:51.219Z,57.42
2022-11-28T07:31:26.903Z,56.10
2022-11-28T07:34:03.247Z,52.03
2022-11-28T07:36:40.043Z,55.20
2022-11-28T07:39:17.643Z,55.25
2022-11-28T07:41:51.211Z,55.13
2022-11-28T07:44:24.670Z,58.03
2022-11-28T07:46:59.667Z,58.33
2022-11-28T07:49:36.037Z,61.65
2022-11-28T07:52:09.545Z,69.13
2022-11-28T07:54:43.015Z,95.30
2022-11-28T07:57:16.527Z,85.97
2022-11-28T07:59:50.303Z,70.25
2022-11-28T08:02:26.169Z,68.57
2022-11-28T08:05:02.697Z,59.70
2022-11-28T08:07:36.232Z,58.10
2022-11-28T08:10:10.866Z,62.22
2022-11-28T08:12:48.556Z,54.03
2022-11-28T08:15:21.976Z,50.22
2022-11-28T08:17:56.972Z,49.55
2022-11-28T08:20:30.416Z,58.60
2022-11-28T08:23:03.859Z,53.60
2022-11-28T08:25:37.275Z,53.08
2022-11-28T08:28:10.722Z,51.65
2022-11-28T08:30:44.141Z,53.65
2022-11-28T08:33:19.062Z,54.13
2022-11-28T08:35:53.248Z,55.38
2022-11-28T08:38:26.775Z,54.10
2022-11-28T08:41:03.478Z,52.90
2022-11-28T08:43:37.741Z,62.33
2022-11-28T08:46:13.336Z,59.45
2022-11-28T08:48:49.773Z,50.97
2022-11-28T08:51:25.222Z,58.72
2022-11-28T08:53:59.713Z,56.53
2022-11-28T08:56:33.886Z,55.42
2022-11-28T08:59:08.465Z,70.18
2022-11-28T09:01:42.136Z,52.42
2022-11-28T09:04:17.190Z,59.45
2022-11-28T09:06:50.784Z,51.17
2022-11-28T09:09:25.599Z,51.72
2022-11-28T09:12:00.919Z,55.22
2022-11-28T09:14:38.030Z,60.88
2022-11-28T09:17:12.004Z,59.33
2022-11-28T09:24:53.735Z,58.03
2022-11-28T09:27:27.398Z,58.40
2022-11-28T09:30:00.895Z,57.30
2022-11-28T09:32:34.956Z,50.38
2022-11-28T09:37:46.709Z,49.78
2022-11-28T09:40:31.473Z,53.53
2022-11-28T09:43:10.610Z,49.30
2022-11-28T09:45:52.182Z,52.28
2022-11-28T09:48:34.155Z,44.70
2022-11-28T09:51:24.805Z,49.55
2022-11-28T09:54:08.523Z,49.78
2022-11-28T09:56:42.264Z,52.47
2022-11-28T09:59:25.958Z,48.70
2022-11-28T10:02:16.480Z,48.38
2022-11-28T10:04:58.219Z,49.05
2022-11-28T10:07:55.216Z,50.22
2022-11-28T10:10:40.319Z,51.28
2022-11-28T10:13:29.664Z,53.83
2022-11-28T10:16:13.610Z,53.35
2022-11-28T10:18:50.838Z,58.78
2022-11-28T10:21:38.434Z,52.05
2022-11-28T10:24:22.958Z,51.38
2022-11-28T10:27:00.566Z,53.88
2022-11-28T10:29:48.843Z,53.45
2022-11-28T10:32:32.114Z,48.38
2022-11-28T10:35:15.192Z,46.73
2022-11-28T10:37:49.582Z,51.45
2022-11-28T10:40:31.518Z,53.85
2022-11-28T10:43:12.547Z,53.60
2022-11-28T10:45:52.939Z,54.08
2022-11-28T10:48:39.944Z,50.63
2022-11-28T10:51:25.651Z,53.47
2022-11-28T10:54:11.061Z,47.25
2022-11-28T10:56:55.887Z,58.22
2022-11-28T10:59:38.220Z,53.22
2022-11-28T11:02:23.145Z,52.25
2022-11-28T11:04:57.011Z,49.47
2022-11-28T11:10:16.611Z,43.50
2022-11-28T11:12:53.655Z,50.65
2022-11-28T11:15:35.142Z,47.30
2022-11-28T11:18:24.122Z,48.05
2022-11-28T11:21:10.463Z,50.90
2022-11-28T11:23:44.427Z,43.92
2022-11-28T11:26:28.634Z,45.30
2022-11-28T11:31:45.612Z,59.08
2022-11-28T11:34:21.088Z,56.08
2022-11-28T11:37:21.955Z,47.42
2022-11-28T11:39:55.490Z,43.38
2022-11-28T11:42:30.694Z,41.45
2022-11-28T11:45:27.380Z,45.58
2022-11-28T11:48:01.442Z,50.55
2022-11-28T11:53:14.958Z,48.10
2022-11-28T11:55:52.057Z,47.25
2022-11-28T11:58:29.663Z,51.97
2022-11-28T12:01:06.578Z,47.28
2022-11-28T12:03:43.062Z,50.33
2022-11-28T12:06:23.223Z,53.20
2022-11-28T12:09:09.593Z,54.90
2022-11-28T12:11:49.027Z,50.92
2022-11-28T12:14:31.451Z,48.42
2022-11-28T12:17:47.501Z,51.38
2022-11-28T12:20:37.551Z,56.35
2022-11-28T12:23:29.123Z,59.35
2022-11-28T12:26:11.763Z,56.83
2022-11-28T12:28:59.292Z,56.42
2022-11-28T12:31:46.247Z,51.83
2022-11-28T12:34:33.378Z,52.47
2022-11-28T12:37:18.921Z,55.15
2022-11-28T12:40:00.740Z,47.13
2022-11-28T12:43:02.969Z,52.13
2022-11-28T12:45:43.943Z,52.65
2022-11-28T12:48:36.364Z,47.45
2022-11-28T12:51:22.684Z,53.97
2022-11-28T12:54:09.090Z,49.70
2022-11-28T12:56:55.551Z,47.08
2022-11-28T12:59:38.673Z,53.75
2022-11-28T13:02:26.853Z,52.63
2022-11-28T13:05:20.536Z,53.47
2022-11-28T13:08:19.264Z,53.13
2022-11-28T13:11:02.137Z,50.58
2022-11-28T13:13:42.017Z,44.72
2022-11-28T13:16:26.916Z,51.63
2022-11-28T13:19:06.585Z,49.40
2022-11-28T13:21:47.344Z,49.35
2022-11-28T13:24:29.053Z,53.60
2022-11-28T13:27:10.480Z,54.15
2022-11-28T13:29:51.605Z,55.63
2022-11-28T13:32:30.423Z,53.13
2022-11-28T13:35:04.994Z,54.88
2022-11-28T13:40:47.822Z,57.40
2022-11-28T13:43:26.913Z,59.15
2022-11-28T13:46:00.784Z,56.58
2022-11-28T13:51:48.058Z,60.85
2022-11-28T13:57:27.422Z,57.08
2022-11-28T14:00:05.307Z,50.22
2022-11-28T14:02:52.024Z,65.10
2022-11-28T14:05:35.636Z,60.42
2022-11-28T14:08:09.661Z,61.40
2022-11-28T14:11:07.574Z,63.72
2022-11-28T14:14:03.986Z,58.03
2022-11-28T14:16:52.153Z,65.43
2022-11-28T14:19:41.539Z,55.97
2022-11-28T14:22:28.131Z,65.85
2022-11-28T14:25:14.475Z,56.17
2022-11-28T14:27:54.865Z,64.57
2022-11-28T14:30:38.438Z,53.60
2022-11-28T14:33:20.329Z,64.70
2022-11-28T14:36:30.536Z,61.65
2022-11-28T14:39:12.919Z,53.70
2022-11-28T14:42:59.448Z,59.90
2022-11-28T14:45:45.462Z,59.25
2022-11-28T14:48:28.835Z,55.47
2022-11-28T14:51:02.723Z,50.05
2022-11-28T14:53:46.229Z,52.88
2022-11-28T14:56:27.573Z,52.72
2022-11-28T14:59:03.914Z,44.70
2022-11-28T15:01:51.854Z,56.08
2022-11-28T15:04:55.192Z,55.80
2022-11-28T15:07:37.138Z,57.42
2022-11-28T15:10:17.092Z,53.58
2022-11-28T15:12:59.991Z,60.75
2022-11-28T15:15:38.976Z,49.88
2022-11-28T15:18:14.598Z,50.30
2022-11-28T15:20:55.824Z,45.72
2022-11-28T15:23:32.702Z,52.17
2022-11-28T15:26:07.056Z,48.70
2022-11-28T15:28:43.715Z,42.20
2022-11-28T15:31:23.910Z,52.90
2022-11-28T15:33:59.115Z,51.50
2022-11-28T15:36:32.690Z,51.20
2022-11-28T15:39:06.579Z,50.80
2022-11-28T15:44:18.152Z,42.53
2022-11-28T15:46:52.254Z,55.97
2022-11-28T15:49:32.383Z,56.45
2022-11-28T15:52:18.529Z,53.58
2022-11-28T15:54:57.432Z,56.45
2022-11-28T15:57:32.775Z,50.00
2022-11-28T16:00:10.212Z,54.50
2022-11-28T16:02:53.524Z,54.40
2022-11-28T16:05:31.350Z,54.50
2022-11-28T16:08:07.821Z,50.53
2022-11-28T16:10:46.167Z,50.58
2022-11-28T16:13:25.028Z,48.50
2022-11-28T16:16:01.501Z,50.35
2022-11-28T16:18:35.616Z,53.67
2022-11-28T16:23:46.704Z,50.20
2022-11-28T16:26:26.465Z,47.45
2022-11-28T16:29:14.925Z,43.70
2022-11-28T16:31:51.069Z,43.15
2022-11-28T16:34:46.124Z,45.97
2022-11-28T16:37:27.023Z,45.78
2022-11-28T16:40:02.931Z,53.63
2022-11-28T16:42:36.835Z,42.67
2022-11-28T16:45:14.002Z,38.70
2022-11-28T16:47:47.760Z,41.75
2022-11-28T16:50:23.508Z,39.33
2022-11-28T16:53:04.902Z,43.55
2022-11-28T16:55:44.502Z,43.38
2022-11-28T16:58:23.356Z,41.85
2022-11-28T17:01:03.118Z,49.97
2022-11-28T17:03:57.960Z,52.65
2022-11-28T17:06:34.498Z,42.75
2022-11-28T17:09:12.924Z,47.60
2022-11-28T17:11:57.569Z,45.25
2022-11-28T17:14:31.084Z,36.80
2022-11-28T17:17:13.356Z,37.95
2022-11-28T17:19:47.445Z,43.53
2022-11-28T17:22:24.342Z,38.47
2022-11-28T17:25:02.388Z,40.80
2022-11-28T17:27:36.505Z,39.55
2022-11-28T17:30:20.392Z,41.58
2022-11-28T17:32:54.170Z,38.78
2022-11-28T17:35:35.580Z,35.50
2022-11-28T17:38:09.365Z,36.53
2022-11-28T17:40:44.989Z,38.13
2022-11-28T17:43:19.815Z,34.78
2022-11-28T17:45:53.582Z,35.22
2022-11-28T17:48:27.605Z,37.58
2022-11-28T17:51:02.201Z,40.22
2022-11-28T17:53:35.812Z,40.60
2022-11-28T17:56:12.892Z,38.22
2022-11-28T17:58:46.537Z,38.55
2022-11-28T18:01:26.519Z,41.33
2022-11-28T18:04:05.414Z,48.45
2022-11-28T18:06:39.049Z,47.75
2022-11-28T18:09:13.961Z,42.35
2022-11-28T18:11:49.072Z,40.97
2022-11-28T18:14:22.799Z,41.90
2022-11-28T18:19:30.638Z,44.37
2022-11-28T18:24:53.737Z,38.08
2022-11-28T18:27:38.892Z,41.30
2022-11-28T18:30:18.426Z,40.40
2022-11-28T18:32:56.825Z,46.53
2022-11-28T18:35:35.635Z,39.92
2022-11-28T18:38:19.737Z,40.70
2022-11-28T18:40:55.005Z,37.78
2022-11-28T18:43:38.996Z,42.15
2022-11-28T18:46:18.402Z,40.17
2022-11-28T18:49:00.519Z,43.75
2022-11-28T18:51:42.647Z,39.15
2022-11-28T18:54:28.677Z,29.77
2022-11-28T18:57:04.789Z,34.90
2022-11-28T18:59:46.168Z,35.85
2022-11-28T19:02:27.367Z,29.35
2022-11-28T19:05:08.949Z,37.60
2022-11-28T19:07:45.667Z,34.63
2022-11-28T19:10:22.831Z,34.10
2022-11-28T19:13:09.765Z,34.53
2022-11-28T19:15:53.158Z,33.05
2022-11-28T19:18:32.986Z,33.33
2022-11-28T19:21:07.997Z,33.13
2022-11-28T19:23:49.971Z,32.05
2022-11-28T19:26:29.397Z,30.85
2022-11-28T19:29:07.365Z,36.25
2022-11-28T19:31:56.679Z,33.20
2022-11-28T19:34:33.835Z,35.67
2022-11-28T19:37:15.616Z,32.45
2022-11-28T19:40:02.776Z,33.22
2022-11-28T19:42:42.491Z,34.25
2022-11-28T19:45:25.594Z,30.38
2022-11-28T19:48:05.817Z,35.95
2022-11-28T19:50:42.751Z,32.22
2022-11-28T19:53:17.025Z,33.85
2022-11-28T19:56:10.289Z,38.25
2022-11-28T19:58:48.909Z,33.47
2022-11-28T20:01:33.252Z,35.97
2022-11-28T20:04:11.910Z,34.63
2022-11-28T20:06:48.705Z,33.33
2022-11-28T20:09:29.383Z,31.23
2022-11-28T20:12:03.635Z,34.92
2022-11-28T20:14:54.410Z,31.55
2022-11-28T20:20:47.618Z,32.22
2022-11-28T20:23:33.509Z,37.47
2022-11-28T20:26:08.929Z,35.38
2022-11-28T20:28:55.359Z,40.60
2022-11-28T20:31:40.237Z,37.60
2022-11-28T20:34:23.080Z,37.90
2022-11-28T20:37:16.056Z,36.80
2022-11-28T20:39:57.706Z,37.38
2022-11-28T20:42:40.008Z,37.20
2022-11-28T20:45:14.978Z,47.13
2022-11-28T20:47:53.659Z,43.30
2022-11-28T20:50:33.909Z,36.50
2022-11-28T20:53:27.040Z,37.63
2022-11-28T20:56:05.148Z,45.10
2022-11-28T20:58:40.595Z,36.10
2022-11-28T21:01:34.795Z,41.40
2022-11-28T21:04:22.078Z,43.00
2022-11-28T21:07:00.772Z,42.15
2022-11-28T21:09:41.017Z,44.45
2022-11-28T21:12:21.114Z,36.38
2022-11-28T21:15:04.389Z,37.80
2022-11-28T21:17:48.568Z,35.65
2022-11-28T21:23:09.603Z,40.97
2022-11-28T21:25:54.105Z,41.28
2022-11-28T21:28:38.673Z,46.55
2022-11-28T21:31:19.373Z,39.50
2022-11-28T21:34:01.722Z,35.20
2022-11-28T21:36:42.327Z,42.67
2022-11-28T21:39:21.100Z,44.95
2022-11-28T21:41:59.414Z,45.35
2022-11-28T21:44:41.067Z,41.30
2022-11-28T21:47:22.629Z,46.05
2022-11-28T21:50:03.775Z,48.20
2022-11-28T21:52:41.667Z,40.20
2022-11-28T21:55:26.139Z,44.38
2022-11-28T21:58:01.740Z,43.05
2022-11-28T22:00:53.253Z,42.53
2022-11-28T22:03:35.082Z,43.05
2022-11-28T22:06:17.254Z,38.47
2022-11-28T22:09:09.616Z,38.72
2022-11-28T22:11:44.226Z,41.92
2022-11-28T22:14:19.177Z,43.53
2022-11-28T22:16:52.763Z,41.55
2022-11-28T22:19:47.414Z,36.35
2022-11-28T22:22:22.535Z,40.97
2022-11-28T22:25:14.757Z,39.42
2022-11-28T22:27:56.898Z,38.78
2022-11-28T22:30:43.681Z,40.25
2022-11-28T22:33:24.783Z,41.95
2022-11-28T22:36:10.981Z,40.38
2022-11-28T22:38:48.305Z,40.90
2022-11-28T22:41:37.049Z,36.25
2022-11-28T22:44:16.011Z,36.22
2022-11-28T22:46:54.389Z,40.47
2022-11-28T22:49:28.749Z,36.55
2022-11-28T22:52:05.583Z,36.15
2022-11-28T22:54:43.231Z,38.45
2022-11-28T22:57:22.601Z,33.13
2022-11-28T22:59:59.551Z,36.38
2022-11-28T23:02:37.443Z,39.38
2022-11-28T23:05:14.250Z,35.92
2022-11-28T23:07:52.281Z,35.10
2022-11-28T23:10:31.895Z,34.17
2022-11-28T23:13:11.227Z,37.50
2022-11-28T23:15:53.681Z,39.08
2022-11-28T23:18:29.676Z,36.05
2022-11-28T23:21:06.904Z,29.00
2022-11-28T23:23:48.174Z,32.90
2022-11-28T23:26:25.701Z,26.13
2022-11-28T23:29:04.068Z,31.35
2022-11-28T23:31:43.711Z,31.23
2022-11-28T23:34:20.981Z,31.35
2022-11-28T23:36:57.265Z,32.83
2022-11-28T23:39:36.000Z,32.10
2022-11-28T23:42:16.916Z,29.60
2022-11-28T23:44:53.076Z,30.15
2022-11-28T23:47:30.334Z,27.38
2022-11-28T23:50:18.788Z,33.63
2022-11-28T23:52:53.167Z,31.10
2022-11-28T23:55:29.227Z,33.22
2022-11-28T23:58:09.281Z,33.88
